Time;durP1;ratioP1;P1;durP2;ratioP2;P2;SDS_P1;SDS_P2;PMS_P1;PMS_P2;Temp;Humidity;BMP_temperature;BMP_pressure;BME280_temperature;BME280_humidity;BME280_pressure;Samples;Min_cycle;Max_cycle;Signal;HPM_P1;HPM_P2
2021/06/19 00:00:14;;;;;;;;;;;;;;;21.01;55.87;100776.66;1722609;83;21015;-81
2021/06/19 00:02:41;;;;;;;0.68;0.25;;;;;;;20.97;56.03;100784.45;1719563;83;20176;-79
2021/06/19 00:05:11;;;;;;;2.77;0.47;;;;;;;20.90;56.16;100785.69;1654078;85;21054;-80
2021/06/19 00:07:39;;;;;;;1.98;0.28;;;;;;;20.88;56.28;100781.05;1663784;85;21069;-79
2021/06/19 00:10:08;;;;;;;2.27;0.40;;;;;;;20.87;56.40;100788.88;1665105;86;21479;-82
2021/06/19 00:12:35;;;;;;;1.67;0.40;;;;;;;20.83;56.37;100780.95;1671404;85;21569;-80
2021/06/19 00:15:07;;;;;;;0.75;0.20;;;;;;;20.82;56.56;100784.20;1662986;85;21506;-83
2021/06/19 00:17:35;;;;;;;1.47;0.25;;;;;;;20.80;56.59;100777.67;1641767;86;21012;-83
2021/06/19 00:20:05;;;;;;;3.65;0.30;;;;;;;20.79;56.60;100787.39;1632859;87;21064;-80
2021/06/19 00:22:31;;;;;;;2.08;0.20;;;;;;;20.74;56.68;100781.38;1648111;85;21686;-81
2021/06/19 00:24:58;;;;;;;2.85;0.30;;;;;;;20.73;56.72;100777.01;1648925;85;21537;-81
2021/06/19 00:27:24;;;;;;;;;;;;;;;20.72;56.78;100785.38;1652757;87;21023;-81
2021/06/19 00:29:50;;;;;;;1.72;0.40;;;;;;;20.71;56.85;100776.44;1651008;86;20201;-81
2021/06/19 00:32:16;;;;;;;;;;;;;;;20.62;57.00;100772.48;1651564;86;21563;-80
2021/06/19 00:34:43;;;;;;;1.95;0.30;;;;;;;20.60;57.11;100777.33;1649503;86;20142;-81
2021/06/19 00:37:12;;;;;;;1.57;0.33;;;;;;;20.55;57.25;100778.04;1644907;87;21080;-80
2021/06/19 00:39:39;;;;;;;3.17;0.30;;;;;;;20.54;57.33;100780.98;1660006;85;21001;-81
2021/06/19 00:42:07;;;;;;;1.50;0.30;;;;;;;20.55;57.29;100779.91;1644836;86;21078;-81
2021/06/19 00:44:34;;;;;;;1.17;0.20;;;;;;;20.57;57.41;100779.97;1641329;86;21063;-82
2021/06/19 00:47:01;;;;;;;2.70;0.37;;;;;;;20.59;57.31;100774.31;1635406;87;21149;-80
2021/06/19 00:49:28;;;;;;;2.08;0.42;;;;;;;20.57;57.28;100775.09;1636021;87;21542;-81
2021/06/19 00:51:54;;;;;;;0.98;0.47;;;;;;;20.56;57.32;100774.79;1634718;87;21616;-81
2021/06/19 00:54:22;;;;;;;1.57;0.53;;;;;;;20.55;57.29;100769.07;1651433;87;21122;-79
2021/06/19 00:56:51;;;;;;;4.62;0.55;;;;;;;20.55;57.35;100775.33;1641327;86;21531;-80
2021/06/19 00:59:18;;;;;;;3.02;0.20;;;;;;;20.53;57.38;100782.04;1642171;87;20998;-80
2021/06/19 01:01:45;;;;;;;1.37;0.40;;;;;;;20.51;57.51;100777.40;1635024;86;21121;-82
2021/06/19 01:04:11;;;;;;;4.75;0.60;;;;;;;20.48;57.52;100771.14;1642034;86;21576;-83
2021/06/19 01:06:39;;;;;;;1.47;0.50;;;;;;;20.47;57.54;100774.89;1609298;87;21119;-82
2021/06/19 01:09:09;;;;;;;2.70;0.53;;;;;;;20.44;57.65;100773.51;1686927;85;21015;-83
2021/06/19 01:11:39;;;;;;;2.65;0.40;;;;;;;20.40;57.66;100775.87;1679992;84;20996;-83
2021/06/19 01:14:07;;;;;;;4.72;0.28;;;;;;;20.38;57.77;100776.66;1678477;85;21038;-82
2021/06/19 01:16:34;;;;;;;3.58;0.47;;;;;;;20.38;57.76;100773.10;1661273;86;21074;-82
2021/06/19 01:19:03;;;;;;;1.77;0.30;;;;;;;20.42;57.67;100768.87;1683528;84;21022;-83
2021/06/19 01:21:32;;;;;;;4.45;0.30;;;;;;;20.46;57.63;100767.86;1684828;85;21011;-81
2021/06/19 01:23:59;;;;;;;2.08;0.37;;;;;;;20.45;57.58;100767.55;1675142;84;21164;-82
2021/06/19 01:26:29;;;;;;;3.00;0.40;;;;;;;20.45;57.55;100764.84;1670742;86;21015;-82
2021/06/19 01:28:57;;;;;;;1.77;0.23;;;;;;;20.42;57.60;100762.91;1653392;85;21006;-81
2021/06/19 01:31:24;;;;;;;3.30;0.40;;;;;;;20.39;57.60;100763.39;1687270;80;21071;-80
2021/06/19 01:33:51;;;;;;;3.87;0.40;;;;;;;20.37;57.69;100769.58;1635374;83;21024;-82
2021/06/19 01:36:19;;;;;;;5.28;0.40;;;;;;;20.35;57.69;100766.30;1681784;85;21108;-84
2021/06/19 01:38:50;;;;;;;2.25;0.30;;;;;;;20.33;57.77;100760.84;1667560;86;21097;-82
2021/06/19 01:41:31;;;;;;;3.80;0.37;;;;;;;20.30;57.86;100760.78;1652012;86;21019;-82
2021/06/19 01:44:01;;;;;;;8.30;0.47;;;;;;;20.27;57.92;100768.56;1667322;86;21492;-81
2021/06/19 01:46:28;;;;;;;4.33;0.40;;;;;;;20.24;58.01;100765.82;1665566;85;21168;-81
2021/06/19 01:48:56;;;;;;;1.85;0.50;;;;;;;20.26;58.01;100760.98;1676097;85;21596;-81
2021/06/19 01:51:22;;;;;;;2.40;0.35;;;;;;;20.27;58.01;100767.21;1663861;85;21003;-81
2021/06/19 01:53:50;;;;;;;1.67;0.60;;;;;;;20.26;58.04;100766.40;1674839;85;21085;-80
2021/06/19 01:56:16;;;;;;;1.30;0.40;;;;;;;20.27;58.02;100766.70;1669489;85;21108;-79
2021/06/19 01:58:43;;;;;;;5.15;0.40;;;;;;;20.28;58.00;100774.28;1664167;85;21089;-81
2021/06/19 02:01:12;;;;;;;4.33;0.53;;;;;;;20.27;58.02;100772.12;1672942;85;21006;-81
2021/06/19 02:03:39;;;;;;;0.75;0.30;;;;;;;20.27;58.00;100765.34;1677211;85;21014;-82
2021/06/19 02:06:06;;;;;;;2.45;0.23;;;;;;;20.27;57.99;100771.27;1672924;85;21133;-82
2021/06/19 02:08:34;;;;;;;2.70;0.30;;;;;;;20.29;57.96;100767.81;1676820;85;21057;-81
2021/06/19 02:11:02;;;;;;;1.57;0.35;;;;;;;20.30;58.07;100766.73;1671068;85;20995;-82
2021/06/19 02:13:30;;;;;;;2.60;0.50;;;;;;;20.31;57.93;100775.16;1677714;85;21022;-81
2021/06/19 02:15:57;;;;;;;2.08;0.55;;;;;;;20.31;57.92;100769.20;1661921;85;21075;-81
2021/06/19 02:18:26;;;;;;;0.30;0.20;;;;;;;20.36;57.93;100772.02;1636617;87;21010;-81
2021/06/19 02:20:53;;;;;;;2.62;0.20;;;;;;;20.46;57.71;100770.02;1637790;87;20977;-80
2021/06/19 02:23:23;;;;;;;0.55;0.30;;;;;;;20.60;57.38;100775.97;1667175;85;21075;-80
2021/06/19 02:25:53;;;;;;;1.57;0.57;;;;;;;20.69;57.30;100769.63;1652128;85;21203;-81
2021/06/19 02:28:25;;;;;;;2.77;0.35;;;;;;;20.72;57.16;100760.48;1655068;86;21700;-83
2021/06/19 02:30:57;;;;;;;3.58;0.72;;;;;;;20.72;56.98;100766.41;1654602;87;21493;-84
2021/06/19 02:33:24;;;;;;;3.05;0.30;;;;;;;20.71;57.00;100771.02;1634648;87;21154;-81
2021/06/19 02:35:54;;;;;;;0.55;0.30;;;;;;;20.71;56.87;100776.97;1640717;87;21051;-83
2021/06/19 02:38:22;;;;;;;1.30;0.50;;;;;;;20.67;56.90;100769.88;1650908;86;21081;-83
2021/06/19 02:40:50;;;;;;;2.47;0.60;;;;;;;20.64;56.90;100783.89;1641847;85;21065;-83
2021/06/19 02:43:19;;;;;;;0.75;0.35;;;;;;;20.60;57.03;100774.62;1614983;88;21121;-81
2021/06/19 02:45:47;;;;;;;5.03;0.60;;;;;;;20.54;57.16;100776.92;1645883;86;21106;-81
2021/06/19 02:48:14;;;;;;;1.80;0.35;;;;;;;20.49;57.26;100783.05;1622474;87;21096;-82
2021/06/19 02:50:43;;;;;;;3.30;0.40;;;;;;;20.47;57.32;100778.95;1622148;88;21520;-81
2021/06/19 02:53:12;;;;;;;7.78;0.85;;;;;;;20.47;57.40;100789.78;1635337;87;21104;-82
2021/06/19 02:55:42;;;;;;;4.95;0.40;;;;;;;20.42;57.46;100788.64;1626507;86;21806;-83
2021/06/19 02:58:10;;;;;;;1.55;0.50;;;;;;;20.39;57.65;100796.42;1623218;87;21195;-82
2021/06/19 03:00:38;;;;;;;1.37;0.30;;;;;;;20.39;57.67;100791.81;1654851;85;21015;-82
2021/06/19 03:03:06;;;;;;;1.70;0.45;;;;;;;20.39;57.71;100782.34;1657180;87;21161;-83
2021/06/19 03:05:35;;;;;;;1.62;0.20;;;;;;;20.45;57.65;100795.98;1648329;85;21113;-80
2021/06/19 03:08:04;;;;;;;1.17;0.82;;;;;;;20.48;57.58;100800.38;1650507;85;21119;-81
2021/06/19 03:10:35;;;;;;;0.57;0.40;;;;;;;20.47;57.62;100796.55;1650584;85;21100;-81
2021/06/19 03:13:03;;;;;;;1.55;0.60;;;;;;;20.47;57.73;100801.97;1647910;85;20984;-82
2021/06/19 03:15:30;;;;;;;0.62;0.60;;;;;;;20.48;57.64;100805.80;1656590;87;21032;-82
2021/06/19 03:18:00;;;;;;;4.22;0.50;;;;;;;20.51;57.65;100800.42;1660235;85;21102;-80
2021/06/19 03:20:27;;;;;;;2.67;0.82;;;;;;;20.53;57.64;100803.70;1655874;85;21553;-83
2021/06/19 03:23:00;;;;;;;4.20;0.50;;;;;;;20.57;57.52;100808.95;1648537;85;21529;-81
2021/06/19 03:25:29;;;;;;;3.10;0.42;;;;;;;20.63;57.39;100802.58;1667635;84;21070;-82
2021/06/19 03:27:59;;;;;;;3.98;0.45;;;;;;;20.87;57.15;100809.20;1689469;85;21059;-89
2021/06/19 03:30:28;;;;;;;0.90;0.28;;;;;;;21.34;56.66;100810.20;1694122;84;21171;-83
2021/06/19 03:32:55;;;;;;;2.40;0.30;;;;;;;21.82;55.04;100806.03;1688444;84;21071;-82
2021/06/19 03:35:22;;;;;;;1.20;0.30;;;;;;;22.11;54.04;100809.39;1689450;84;21030;-83
2021/06/19 03:37:53;;;;;;;0.72;0.20;;;;;;;22.25;53.61;100808.48;1690058;84;21018;-81
2021/06/19 03:40:22;;;;;;;2.15;0.40;;;;;;;22.28;53.24;100805.27;1679283;84;21213;-81
2021/06/19 03:42:53;;;;;;;2.15;0.30;;;;;;;22.25;53.35;100803.05;1678981;84;21466;-82
2021/06/19 03:45:26;;;;;;;3.65;0.30;;;;;;;22.21;53.35;100801.89;1686748;84;21537;-83
2021/06/19 03:47:55;;;;;;;0.78;0.20;;;;;;;22.19;53.33;100805.40;1687630;84;21161;-82
2021/06/19 03:50:25;;;;;;;2.20;0.30;;;;;;;22.14;53.00;100793.12;1684978;84;21509;-82
2021/06/19 03:52:53;;;;;;;1.55;0.40;;;;;;;22.19;53.18;100806.75;1682317;81;20992;-82
2021/06/19 03:55:20;;;;;;;2.15;0.30;;;;;;;22.32;52.81;100796.88;1688420;80;21069;-86
2021/06/19 03:57:46;;;;;;;2.15;0.20;;;;;;;22.49;52.50;100806.80;1671661;81;20961;-82
2021/06/19 04:00:16;;;;;;;0.82;0.25;;;;;;;22.89;51.73;100804.20;1688081;80;21098;-82
2021/06/19 04:02:44;;;;;;;2.62;0.28;;;;;;;23.18;51.02;100795.75;1661430;86;21098;-81
2021/06/19 04:05:12;;;;;;;7.28;0.40;;;;;;;23.33;50.49;100794.48;1657113;86;21511;-83
2021/06/19 04:07:40;;;;;;;3.30;0.20;;;;;;;23.80;49.93;100799.12;1687482;84;21065;-81
2021/06/19 04:10:09;;;;;;;1.80;0.40;;;;;;;24.53;48.30;100791.47;1686640;85;21106;-82
2021/06/19 04:12:38;;;;;;;1.15;0.20;;;;;;;25.25;46.82;100805.11;1663261;86;21203;-82
2021/06/19 04:15:07;;;;;;;1.17;0.20;;;;;;;25.67;45.46;100800.37;1661030;86;20975;-83
2021/06/19 04:17:34;;;;;;;1.45;0.20;;;;;;;25.91;44.48;100800.00;1658539;86;21540;-82
2021/06/19 04:20:00;;;;;;;2.55;0.35;;;;;;;26.44;43.91;100798.66;1652888;86;21508;-83
2021/06/19 04:22:26;;;;;;;2.30;0.40;;;;;;;26.93;42.65;100801.30;1663148;86;21053;-82
2021/06/19 04:24:52;;;;;;;3.52;0.40;;;;;;;27.35;41.83;100802.59;1656906;86;22318;-84
2021/06/19 04:27:20;;;;;;;2.25;0.20;;;;;;;27.88;41.22;100810.48;1657528;86;21109;-83
2021/06/19 04:29:48;;;;;;;0.50;0.17;;;;;;;28.29;39.80;100788.02;1648743;86;21034;-83
2021/06/19 04:32:16;;;;;;;2.22;0.30;;;;;;;28.26;39.08;100799.59;1684673;84;21034;-84
2021/06/19 04:34:44;;;;;;;1.80;0.45;;;;;;;27.91;40.18;100799.77;1679275;84;21573;-82
2021/06/19 04:37:14;;;;;;;1.70;0.20;;;;;;;27.48;40.46;100801.09;1666693;86;21097;-83
2021/06/19 04:39:51;;;;;;;2.67;0.20;;;;;;;26.45;41.00;100693.16;1664308;86;21519;-82
2021/06/19 04:42:14;;;;;;;2.52;0.30;;;;;;;26.73;41.96;100809.14;1683154;85;21007;-84
2021/06/19 04:47:24;;;;;;;1.67;0.30;;;;;;;26.25;43.22;100798.50;1662505;86;21525;-82
2021/06/19 04:49:51;;;;;;;5.47;0.70;;;;;;;25.84;43.87;100800.31;1666439;86;21591;-81
2021/06/19 04:52:20;;;;;;;8.03;0.30;;;;;;;25.49;44.57;100808.08;1683210;85;21019;-83
2021/06/19 04:54:46;;;;;;;4.78;0.62;;;;;;;25.20;45.05;100817.36;1687209;84;21035;-81
2021/06/19 04:57:13;;;;;;;1.82;0.30;;;;;;;24.97;45.69;100812.73;1681396;84;21026;-82
2021/06/19 04:59:39;;;;;;;0.30;0.20;;;;;;;24.81;46.29;100813.84;1688439;84;21062;-83
2021/06/19 05:02:05;;;;;;;0.40;0.15;;;;;;;24.64;46.56;100813.55;1684045;84;20999;-85
2021/06/19 05:04:31;;;;;;;2.08;0.45;;;;;;;24.47;47.06;100816.50;1679251;84;21127;-86
2021/06/19 05:06:57;;;;;;;4.22;0.55;;;;;;;24.35;47.45;100806.92;1688633;84;22221;-82
2021/06/19 05:09:23;;;;;;;1.82;0.20;;;;;;;24.44;47.80;100810.21;1687170;84;21526;-84
2021/06/19 05:11:51;;;;;;;3.17;0.20;;;;;;;24.78;47.64;100801.56;1683520;84;21142;-82
2021/06/19 05:14:17;;;;;;;0.30;0.30;;;;;;;25.30;46.55;100798.81;1682476;84;21072;-84
2021/06/19 05:16:45;;;;;;;1.57;0.40;;;;;;;25.90;45.71;100801.64;1688173;84;21070;-83
2021/06/19 05:19:12;;;;;;;3.27;0.40;;;;;;;26.56;43.95;100809.51;1685084;84;21031;-85
2021/06/19 05:21:40;;;;;;;0.72;0.23;;;;;;;26.93;42.94;100794.46;1678756;84;21076;-83
2021/06/19 05:24:08;;;;;;;2.75;0.40;;;;;;;27.19;42.12;100790.13;1682478;85;21094;-84
2021/06/19 05:26:41;;;;;;;3.15;0.20;;;;;;;27.28;42.22;100789.80;1681838;85;21019;-86
2021/06/19 05:29:07;;;;;;;2.92;0.35;;;;;;;27.57;41.44;100791.67;1651983;87;21268;-84
2021/06/19 05:31:37;;;;;;;0.78;0.20;;;;;;;27.85;41.32;100798.17;1671268;85;21033;-88
2021/06/19 05:34:03;;;;;;;4.40;0.10;;;;;;;28.14;40.59;100798.11;1668581;84;21080;-79
2021/06/19 05:36:29;;;;;;;4.50;0.30;;;;;;;28.41;40.22;100799.36;1668526;86;21034;-81
2021/06/19 05:38:55;;;;;;;1.27;0.20;;;;;;;28.68;39.08;100807.48;1675214;85;21055;-79
2021/06/19 05:41:21;;;;;;;1.12;0.30;;;;;;;28.60;39.35;100806.80;1669926;85;21525;-79
2021/06/19 05:43:49;;;;;;;3.15;0.30;;;;;;;28.31;39.81;100806.35;1679057;85;21086;-78
2021/06/19 05:46:17;;;;;;;0.80;0.20;;;;;;;28.25;39.93;100808.91;1675334;85;20988;-80
2021/06/19 05:48:43;;;;;;;0.55;0.17;;;;;;;28.25;40.33;100810.28;1669470;85;21162;-80
2021/06/19 05:51:09;;;;;;;1.12;0.10;;;;;;;28.08;40.82;100814.91;1671160;85;21544;-84
2021/06/19 05:53:35;;;;;;;3.02;0.40;;;;;;;28.05;41.14;100808.62;1679144;85;21470;-83
2021/06/19 05:56:01;;;;;;;1.30;0.40;;;;;;;28.11;41.25;100804.73;1672997;85;21000;-85
2021/06/19 05:58:31;;;;;;;0.57;0.17;;;;;;;28.27;40.78;100808.06;1679256;85;21094;-86
2021/06/19 06:00:57;;;;;;;4.97;0.15;;;;;;;28.45;40.47;100797.66;1670509;85;21505;-88
2021/06/19 06:03:25;;;;;;;1.55;0.20;;;;;;;28.68;39.92;100788.28;1650945;85;21558;-92
2021/06/19 06:05:52;;;;;;;3.05;0.23;;;;;;;28.71;40.23;100791.81;1675157;85;21166;-94
2021/06/19 06:08:23;;;;;;;2.25;0.20;;;;;;;28.89;39.73;100804.64;1678714;85;21566;-92
2021/06/19 06:10:56;;;;;;;2.98;0.40;;;;;;;29.13;38.96;100803.73;1677541;83;21031;-87
2021/06/19 06:13:28;;;;;;;2.62;0.40;;;;;;;29.20;39.01;100811.59;1652570;82;21009;-95
2021/06/19 06:16:01;;;;;;;2.58;0.30;;;;;;;29.28;38.97;100814.42;1680183;84;21011;-92
2021/06/19 06:18:30;;;;;;;5.80;0.53;;;;;;;29.34;38.17;100820.64;1679670;82;21033;-94
2021/06/19 06:21:03;;;;;;;1.75;0.30;;;;;;;29.41;38.68;100815.56;1682480;82;21098;-82
2021/06/19 06:23:31;;;;;;;4.00;0.45;;;;;;;29.26;38.87;100822.72;1680027;82;21349;-88
2021/06/19 06:25:58;;;;;;;1.75;0.20;;;;;;;29.24;39.34;100807.92;1683206;81;21046;-88
2021/06/19 06:28:26;;;;;;;2.30;0.30;;;;;;;29.12;39.20;100826.22;1667355;85;20987;-91
2021/06/19 06:31:00;;;;;;;0.50;0.20;;;;;;;29.11;39.69;100818.28;1693108;84;21075;-89
2021/06/19 06:33:30;;;;;;;4.45;0.10;;;;;;;29.18;39.53;100820.11;1694225;84;20986;-92
2021/06/19 06:35:58;;;;;;;3.58;0.30;;;;;;;29.24;39.54;100816.72;1693312;81;21082;-94
2021/06/19 06:38:24;;;;;;;5.40;0.50;;;;;;;29.36;39.19;100812.91;1677213;82;21055;-94
2021/06/19 06:40:51;;;;;;;2.72;0.40;;;;;;;29.35;39.50;100815.41;1691670;85;21078;-88
2021/06/19 06:43:17;;;;;;;0.40;0.20;;;;;;;29.37;39.97;100812.38;1681637;85;21112;-92
2021/06/19 06:45:45;;;;;;;1.47;0.30;;;;;;;29.51;39.37;100807.69;1687134;85;20955;-88
2021/06/19 06:48:12;;;;;;;4.00;0.50;;;;;;;29.66;39.12;100810.69;1686487;84;21074;-89
2021/06/19 06:50:40;;;;;;;4.80;0.33;;;;;;;29.68;38.46;100800.20;1686616;82;21031;-89
2021/06/19 06:53:07;;;;;;;2.42;0.33;;;;;;;29.52;39.03;100796.97;1689812;85;20983;-88
2021/06/19 06:55:33;;;;;;;2.92;0.20;;;;;;;29.46;38.87;100807.23;1686341;85;20991;-89
2021/06/19 06:57:59;;;;;;;4.78;0.20;;;;;;;29.60;38.84;100792.69;1690055;84;21037;-91
2021/06/19 07:00:25;;;;;;;2.98;0.20;;;;;;;29.43;39.17;100794.67;1688141;85;20973;-90
2021/06/19 07:02:52;;;;;;;5.25;0.30;;;;;;;29.41;39.67;100802.41;1692046;85;22074;-88
2021/06/19 07:05:19;;;;;;;2.62;0.55;;;;;;;29.59;38.55;100802.04;1681280;85;21097;-91
2021/06/19 07:07:45;;;;;;;2.00;0.20;;;;;;;29.69;38.72;100794.98;1691769;85;21026;-92
2021/06/19 07:10:14;;;;;;;5.58;0.55;;;;;;;29.80;39.04;100795.59;1684280;85;21048;-85
2021/06/19 07:12:45;;;;;;;4.62;0.30;;;;;;;29.86;37.99;100810.30;1681952;85;21207;-83
2021/06/19 07:15:15;;;;;;;2.87;0.15;;;;;;;29.73;38.36;100799.31;1686429;84;21047;-85
2021/06/19 07:17:42;;;;;;;6.83;0.20;;;;;;;29.67;38.76;100803.52;1685113;85;21025;-84
2021/06/19 07:20:11;;;;;;;5.20;0.30;;;;;;;29.66;39.49;100793.64;1684311;85;21082;-91
2021/06/19 07:22:38;;;;;;;3.20;0.20;;;;;;;29.66;39.26;100797.77;1681206;85;21119;-85
2021/06/19 07:25:07;;;;;;;3.30;0.37;;;;;;;29.23;40.03;100796.67;1682271;85;20975;-87
2021/06/19 07:27:34;;;;;;;4.87;0.40;;;;;;;29.02;40.11;100788.53;1663687;85;21035;-88
2021/06/19 07:30:05;;;;;;;2.80;0.10;;;;;;;28.99;41.00;100791.34;1675895;85;21042;-87
2021/06/19 07:32:31;;;;;;;8.63;0.20;;;;;;;29.11;40.34;100820.46;1677280;85;21014;-87
2021/06/19 07:34:57;;;;;;;2.77;0.47;;;;;;;29.28;38.82;100807.56;1681264;85;21078;-85
2021/06/19 07:37:24;;;;;;;7.55;0.33;;;;;;;29.34;38.78;100809.66;1666251;85;21464;-87
2021/06/19 07:39:53;;;;;;;4.62;0.40;;;;;;;29.28;38.96;100812.25;1675752;85;21788;-85
2021/06/19 07:42:22;;;;;;;4.28;0.30;;;;;;;29.22;39.07;100799.17;1672198;85;21677;-84
2021/06/19 07:44:49;;;;;;;0.62;0.28;;;;;;;29.17;39.30;100789.66;1678333;84;21148;-84
2021/06/19 07:47:16;;;;;;;6.85;0.40;;;;;;;29.10;39.56;100794.69;1674859;85;20999;-85
2021/06/19 07:49:43;;;;;;;2.05;0.30;;;;;;;28.98;39.96;100803.98;1677926;85;21062;-83
2021/06/19 07:52:09;;;;;;;1.65;0.42;;;;;;;28.64;41.26;100794.11;1672745;85;21051;-84
2021/06/19 07:54:37;;;;;;;2.05;0.23;;;;;;;28.35;41.14;100802.73;1667459;85;21126;-84
2021/06/19 07:57:07;;;;;;;6.40;0.37;;;;;;;28.15;41.58;100801.66;1676121;85;21046;-82
2021/06/19 07:59:43;;;;;;;4.17;0.25;;;;;;;27.98;42.11;100817.79;1669693;85;21011;-85
2021/06/19 08:02:09;;;;;;;4.00;0.65;;;;;;;27.84;42.26;100795.19;1629669;87;21025;-82
2021/06/19 08:04:36;;;;;;;1.32;0.35;;;;;;;27.75;42.80;100784.06;1647694;85;21112;-84
2021/06/19 08:07:05;;;;;;;4.80;0.50;;;;;;;27.73;43.23;100790.95;1653057;85;21640;-84
2021/06/19 08:09:31;;;;;;;4.20;0.40;;;;;;;27.70;43.47;100785.48;1650371;85;21088;-85
2021/06/19 08:11:58;;;;;;;2.08;0.35;;;;;;;27.69;43.33;100777.02;1645157;85;21066;-85
2021/06/19 08:14:26;;;;;;;2.30;0.60;;;;;;;27.65;43.46;100788.30;1650304;87;21094;-86
2021/06/19 08:16:54;;;;;;;7.95;0.60;;;;;;;27.53;43.56;100794.17;1649196;85;21080;-85
2021/06/19 08:19:23;;;;;;;5.33;0.75;;;;;;;27.38;43.40;100797.89;1648454;85;21219;-90
2021/06/19 08:21:50;;;;;;;5.65;0.60;;;;;;;27.22;43.95;100776.41;1646440;85;22171;-83
2021/06/19 08:24:16;;;;;;;1.70;0.40;;;;;;;27.14;44.92;100771.86;1651133;85;21052;-85
2021/06/19 08:26:43;;;;;;;3.37;0.72;;;;;;;27.12;44.61;100786.91;1641215;85;21485;-82
2021/06/19 08:29:11;;;;;;;2.47;0.30;;;;;;;27.06;44.96;100773.03;1648369;85;21191;-85
2021/06/19 08:31:40;;;;;;;2.33;0.50;;;;;;;27.04;44.97;100796.56;1646220;85;21249;-84
2021/06/19 08:34:08;;;;;;;3.80;0.47;;;;;;;27.04;45.29;100767.84;1633807;85;21058;-82
2021/06/19 08:36:34;;;;;;;3.20;0.35;;;;;;;27.05;45.55;100760.44;1606240;87;21069;-83
2021/06/19 08:39:03;;;;;;;1.47;0.50;;;;;;;27.10;45.38;100779.55;1616091;87;21081;-82
2021/06/19 08:41:32;;;;;;;2.98;0.90;;;;;;;27.13;44.94;100786.63;1615945;87;21559;-82
2021/06/19 08:44:02;;;;;;;6.12;0.68;;;;;;;27.16;44.83;100779.22;1589775;88;21632;-83
2021/06/19 08:46:30;;;;;;;2.55;0.80;;;;;;;27.20;44.98;100763.05;1616711;87;21068;-81
2021/06/19 08:48:57;;;;;;;0.95;0.30;;;;;;;27.19;45.20;100764.14;1616935;87;21636;-81
2021/06/19 08:51:27;;;;;;;2.77;0.62;;;;;;;27.23;45.38;100763.01;1618751;87;21030;-81
2021/06/19 08:53:55;;;;;;;3.52;0.60;;;;;;;27.29;45.41;100749.00;1612298;87;21054;-83
2021/06/19 08:56:23;;;;;;;2.83;0.30;;;;;;;27.40;44.64;100776.27;1643692;86;21066;-83
2021/06/19 08:58:49;;;;;;;2.58;0.62;;;;;;;27.45;44.45;100770.19;1657805;86;21126;-83
2021/06/19 09:01:16;;;;;;;3.65;0.40;;;;;;;27.45;44.05;100756.50;1659766;85;20999;-81
2021/06/19 09:03:49;;;;;;;2.17;0.47;;;;;;;27.33;44.99;100750.06;1668671;85;21204;-81
2021/06/19 09:06:25;;;;;;;1.20;0.35;;;;;;;27.27;45.20;100744.92;1664842;85;21077;-81
2021/06/19 09:09:15;;;;;;;6.45;0.50;;;;;;;27.34;45.20;100764.00;1673502;85;21047;-81
2021/06/19 09:11:54;;;;;;;3.67;0.33;;;;;;;27.43;44.39;100749.13;1667209;85;21032;-81
2021/06/19 09:14:27;;;;;;;7.65;0.72;;;;;;;27.51;43.76;100743.56;1661997;84;21053;-81
2021/06/19 09:17:05;;;;;;;3.37;0.70;;;;;;;27.49;43.85;100767.68;1663677;85;20982;-80
2021/06/19 09:19:36;;;;;;;1.42;0.37;;;;;;;27.51;43.89;100753.14;1662208;85;21104;-80
2021/06/19 09:22:15;;;;;;;2.85;0.72;;;;;;;27.49;43.98;100747.95;1658895;85;21070;-85
2021/06/19 09:24:58;;;;;;;2.95;0.68;;;;;;;27.50;44.28;100752.88;1665903;85;21039;-81
2021/06/19 09:27:38;;;;;;;2.55;0.50;;;;;;;27.49;44.35;100763.02;1663164;86;21568;-81
2021/06/19 09:30:21;;;;;;;2.67;0.40;;;;;;;27.46;44.42;100762.78;1663561;85;21007;-83
2021/06/19 09:32:59;;;;;;;2.55;0.75;;;;;;;27.43;44.38;100738.74;1663176;85;21581;-83
2021/06/19 09:35:34;;;;;;;5.67;0.40;;;;;;;27.42;44.68;100731.63;1668875;85;21536;-84
2021/06/19 09:38:14;;;;;;;3.42;0.72;;;;;;;27.47;44.32;100758.38;1667132;85;21030;-82
2021/06/19 09:41:53;;;;;;;2.85;1.25;;;;;;;27.56;43.51;100757.20;1787471;79;22718;-82
2021/06/19 09:44:48;;;;;;;3.30;0.50;;;;;;;27.51;43.17;100732.61;1746218;80;21511;-83
2021/06/19 09:47:17;;;;;;;7.58;0.53;;;;;;;27.52;42.40;100747.38;1731689;81;21032;-82
2021/06/19 09:49:47;;;;;;;3.50;0.40;;;;;;;27.50;42.78;100744.66;1733044;81;20981;-83
2021/06/19 09:52:14;;;;;;;7.00;0.40;;;;;;;27.50;41.85;100744.12;1733659;81;21023;-82
2021/06/19 09:54:47;;;;;;;6.55;0.42;;;;;;;27.51;41.08;100716.19;1733881;81;21063;-83
2021/06/19 09:57:18;;;;;;;10.00;0.68;;;;;;;27.53;42.21;100719.45;1724867;81;20985;-82
2021/06/19 09:59:45;;;;;;;6.70;0.68;;;;;;;27.63;42.54;100722.60;1741881;81;21715;-84
2021/06/19 10:02:30;;;;;;;3.90;0.70;;;;;;;27.71;41.07;100720.59;1734124;81;21027;-85
2021/06/19 10:04:57;;;;;;;9.18;0.78;;;;;;;27.73;41.74;100729.33;1751535;80;21096;-84
2021/06/19 10:07:26;;;;;;;5.62;0.50;;;;;;;27.80;42.24;100730.32;1739798;80;21007;-84
2021/06/19 10:09:56;;;;;;;7.05;0.82;;;;;;;27.30;41.98;100632.96;1760051;80;21098;-85
2021/06/19 10:12:28;;;;;;;4.95;0.23;;;;;;;27.95;42.04;100735.61;1717948;79;21100;-83
2021/06/19 10:15:12;;;;;;;1.87;0.20;;;;;;;27.96;41.91;100710.67;1690415;83;21057;-83
2021/06/19 10:17:44;;;;;;;14.25;0.75;;;;;;;27.94;41.78;100714.83;1633619;86;21025;-84
2021/06/19 10:20:17;;;;;;;3.27;0.50;;;;;;;28.00;41.21;100704.05;1647446;85;21098;-84
2021/06/19 10:22:45;;;;;;;5.03;0.42;;;;;;;28.07;40.65;100722.30;1655679;86;21083;-85
2021/06/19 10:25:16;;;;;;;1.77;0.20;;;;;;;28.06;40.50;100715.74;1672983;83;21070;-86
2021/06/19 10:27:49;;;;;;;3.35;0.60;;;;;;;28.01;40.55;100703.48;1651271;85;21077;-84
2021/06/19 10:30:18;;;;;;;2.33;0.28;;;;;;;28.01;40.94;100693.36;1670997;83;21052;-83
2021/06/19 10:32:47;;;;;;;6.92;0.40;;;;;;;28.12;40.55;100696.73;1666091;84;21119;-85
2021/06/19 10:35:20;;;;;;;8.78;0.53;;;;;;;28.17;40.71;100713.67;1660819;85;21576;-83
2021/06/19 10:37:50;;;;;;;2.45;0.42;;;;;;;28.18;40.70;100720.77;1658051;85;21036;-83
2021/06/19 10:40:24;;;;;;;2.55;0.53;;;;;;;28.18;40.64;100698.84;1653517;85;21052;-85
2021/06/19 10:42:58;;;;;;;4.53;0.28;;;;;;;28.21;40.94;100696.33;1642998;86;21033;-83
2021/06/19 10:45:32;;;;;;;4.90;0.33;;;;;;;28.28;40.80;100696.77;1610858;87;20996;-81
2021/06/19 10:48:08;;;;;;;4.10;0.85;;;;;;;28.30;40.83;100693.16;1644442;86;21622;-82
2021/06/19 10:50:40;;;;;;;6.42;0.40;;;;;;;28.29;41.12;100683.86;1639502;86;21152;-82
2021/06/19 10:53:19;;;;;;;2.98;0.40;;;;;;;28.35;40.72;100686.23;1636046;86;21045;-84
2021/06/19 10:55:55;;;;;;;2.02;0.30;;;;;;;28.46;40.85;100706.08;1638178;86;21341;-85
2021/06/19 10:58:29;;;;;;;7.22;0.30;;;;;;;28.56;40.34;100693.31;1639737;86;21519;-83
2021/06/19 11:01:05;;;;;;;2.67;0.37;;;;;;;28.58;40.08;100710.31;1636151;86;21133;-85
2021/06/19 11:03:51;;;;;;;;;;;;;;;28.58;39.73;100702.08;1644486;86;21143;-83
2021/06/19 11:06:24;;;;;;;5.80;0.60;;;;;;;28.55;39.83;100708.96;1646161;86;20397;-87
2021/06/19 11:09:15;;;;;;;6.58;0.40;;;;;;;28.48;39.26;100710.70;1621871;87;21506;-84
2021/06/19 11:12:01;;;;;;;3.25;0.30;;;;;;;28.47;39.00;100709.06;1622812;86;21005;-85
2021/06/19 11:14:51;;;;;;;7.40;0.25;;;;;;;28.49;39.27;100714.25;1624413;86;21113;-83
2021/06/19 11:17:35;;;;;;;8.38;0.65;;;;;;;28.50;39.53;100700.25;1634233;86;21051;-83
2021/06/19 11:20:16;;;;;;;2.77;0.23;;;;;;;28.52;39.62;100711.75;1649282;85;21543;-84
2021/06/19 11:22:55;;;;;;;2.55;0.13;;;;;;;28.50;39.89;100693.39;1633301;86;21067;-84
2021/06/19 11:25:43;;;;;;;8.55;0.30;;;;;;;28.42;40.22;100692.69;1638076;86;21072;-83
2021/06/19 11:28:23;;;;;;;1.12;0.20;;;;;;;28.39;39.99;100711.13;1632760;86;21064;-84
2021/06/19 11:30:54;;;;;;;2.92;0.30;;;;;;;28.40;38.19;100715.48;1636558;85;21396;-84
2021/06/19 11:33:29;;;;;;;1.77;0.45;;;;;;;28.43;38.16;100697.08;1643679;84;21047;-83
2021/06/19 11:36:07;;;;;;;9.90;0.75;;;;;;;28.44;38.56;100695.13;1637309;86;21681;-84
2021/06/19 11:38:56;;;;;;;4.60;0.30;;;;;;;28.40;38.50;100699.03;1638989;86;21038;-87
2021/06/19 11:41:31;;;;;;;1.45;0.30;;;;;;;28.38;37.86;100691.66;1646896;84;21065;-86